createdAt,value
2019-05-19T00:00:02.320Z,75.12
2019-05-19T00:02:31.448Z,75.17
2019-05-19T00:05:00.728Z,75.27
2019-05-19T00:07:29.832Z,75.60
2019-05-19T00:09:58.862Z,75.49
2019-05-19T00:12:27.972Z,75.61
2019-05-19T00:14:57.000Z,75.37
2019-05-19T00:17:26.125Z,75.46
2019-05-19T00:19:55.141Z,75.42
2019-05-19T00:22:24.162Z,75.48
2019-05-19T00:24:53.196Z,75.54
2019-05-19T00:27:23.277Z,75.58
2019-05-19T00:29:52.300Z,76.39
2019-05-19T00:32:21.348Z,77.29
2019-05-19T00:34:50.380Z,77.38
2019-05-19T00:37:19.405Z,78.14
2019-05-19T00:39:48.812Z,77.81
2019-05-19T00:42:17.831Z,78.66
2019-05-19T00:44:46.946Z,78.85
2019-05-19T00:47:15.966Z,79.00
2019-05-19T00:49:45.000Z,78.55
2019-05-19T00:52:14.108Z,78.66
2019-05-19T00:54:43.146Z,78.95
2019-05-19T00:57:12.165Z,78.77
2019-05-19T00:59:41.588Z,79.30
2019-05-19T01:02:10.592Z,79.47
2019-05-19T01:04:39.698Z,79.34
2019-05-19T01:07:09.082Z,79.65
2019-05-19T01:09:38.089Z,79.57
2019-05-19T01:12:07.124Z,79.85
2019-05-19T01:14:36.215Z,79.85
2019-05-19T01:17:05.284Z,79.88
2019-05-19T01:19:34.278Z,79.79
2019-05-19T01:22:03.313Z,79.64
2019-05-19T01:24:32.345Z,79.36
2019-05-19T01:27:01.380Z,79.11
2019-05-19T01:29:30.409Z,78.99
2019-05-19T01:31:59.490Z,78.91
2019-05-19T01:34:28.583Z,78.92
2019-05-19T01:36:57.900Z,78.83
2019-05-19T01:39:26.949Z,79.14
2019-05-19T01:41:56.055Z,79.53
2019-05-19T01:44:25.079Z,79.47
2019-05-19T01:46:54.130Z,79.15
2019-05-19T01:49:23.430Z,79.44
2019-05-19T01:51:52.472Z,79.58
2019-05-19T01:54:21.500Z,79.90
2019-05-19T01:56:50.606Z,79.97
2019-05-19T01:59:19.636Z,79.88
2019-05-19T02:01:48.707Z,79.60
2019-05-19T02:04:17.786Z,79.57
2019-05-19T02:06:46.882Z,79.38
2019-05-19T02:09:16.935Z,79.20
2019-05-19T02:11:45.962Z,79.19
2019-05-19T02:14:14.979Z,79.16
2019-05-19T02:16:44.020Z,79.30
2019-05-19T02:19:13.062Z,79.37
2019-05-19T02:21:42.083Z,79.55
2019-05-19T02:24:11.329Z,79.38
2019-05-19T02:26:40.369Z,79.34
2019-05-19T02:29:09.408Z,79.50
2019-05-19T02:31:38.444Z,79.32
2019-05-19T02:34:07.476Z,79.30
2019-05-19T02:36:36.531Z,79.27
2019-05-19T02:39:07.074Z,79.23
2019-05-19T02:41:36.323Z,79.14
2019-05-19T02:44:05.432Z,78.93
2019-05-19T02:46:34.653Z,78.80
2019-05-19T02:49:03.829Z,78.74
2019-05-19T02:51:34.438Z,78.51
2019-05-19T02:54:04.554Z,78.34
2019-05-19T02:56:33.601Z,78.22
2019-05-19T02:59:02.696Z,78.25
2019-05-19T03:01:31.740Z,78.13
2019-05-19T03:04:00.851Z,78.07
2019-05-19T03:06:29.872Z,78.10
2019-05-19T03:08:58.926Z,78.16
2019-05-19T03:11:28.109Z,78.09
2019-05-19T03:13:57.218Z,78.04
2019-05-19T03:16:26.283Z,77.93
2019-05-19T03:18:55.401Z,78.30
2019-05-19T03:21:24.426Z,79.05
2019-05-19T03:23:53.458Z,79.58
2019-05-19T03:26:22.486Z,79.95
2019-05-19T03:28:51.547Z,80.24
2019-05-19T03:31:27.888Z,80.01
2019-05-19T03:34:01.577Z,79.79
2019-05-19T03:36:30.661Z,79.77
2019-05-19T03:38:59.759Z,79.85
2019-05-19T03:41:28.794Z,80.32
2019-05-19T03:43:57.824Z,80.54
2019-05-19T03:46:26.855Z,80.70
2019-05-19T03:48:55.882Z,80.40
2019-05-19T03:51:30.795Z,80.55
2019-05-19T03:53:55.728Z,80.49
2019-05-19T03:56:24.758Z,81.01
2019-05-19T03:58:53.841Z,81.20
2019-05-19T04:01:22.926Z,81.46
2019-05-19T04:03:51.963Z,81.40
2019-05-19T04:06:21.000Z,81.83
2019-05-19T04:08:50.397Z,81.72
2019-05-19T04:11:19.437Z,81.56
2019-05-19T04:13:48.551Z,81.96
2019-05-19T04:16:17.609Z,81.82
2019-05-19T04:18:46.630Z,81.80
2019-05-19T04:21:15.661Z,81.38
2019-05-19T04:23:44.709Z,80.76
2019-05-19T04:26:13.721Z,80.87
2019-05-19T04:28:42.832Z,80.78
2019-05-19T04:31:11.841Z,81.10
2019-05-19T04:33:40.897Z,81.11
2019-05-19T04:36:10.221Z,80.58
2019-05-19T04:38:39.290Z,80.67
2019-05-19T04:41:08.349Z,80.30
2019-05-19T04:43:37.502Z,80.26
2019-05-19T04:46:06.549Z,79.99
2019-05-19T04:48:35.956Z,79.94
2019-05-19T04:51:04.997Z,79.50
2019-05-19T04:53:34.657Z,79.23
2019-05-19T04:56:03.697Z,79.25
2019-05-19T04:58:32.721Z,79.14
2019-05-19T05:01:01.757Z,78.85
2019-05-19T05:03:30.795Z,78.50
2019-05-19T05:05:59.845Z,77.81
2019-05-19T05:08:30.841Z,78.00
2019-05-19T05:10:59.625Z,77.83
2019-05-19T05:13:28.662Z,77.64
2019-05-19T05:15:57.702Z,77.62
2019-05-19T05:18:26.996Z,77.61
2019-05-19T05:20:56.087Z,77.05
2019-05-19T05:23:25.101Z,77.05
2019-05-19T05:25:54.194Z,77.18
2019-05-19T05:28:23.246Z,77.18
2019-05-19T05:30:52.594Z,77.37
2019-05-19T05:33:21.627Z,76.30
2019-05-19T05:35:50.671Z,76.20
2019-05-19T05:38:19.706Z,76.54
2019-05-19T05:40:48.731Z,76.95
2019-05-19T05:43:17.772Z,76.90
2019-05-19T05:45:47.034Z,76.85
2019-05-19T05:48:16.041Z,77.28
2019-05-19T05:50:45.097Z,77.28
2019-05-19T05:53:14.129Z,76.82
2019-05-19T05:55:43.162Z,76.78
2019-05-19T05:58:12.208Z,76.63
2019-05-19T06:00:41.281Z,76.84
2019-05-19T06:03:10.356Z,76.24
2019-05-19T06:05:39.386Z,76.24
2019-05-19T06:08:08.409Z,76.59
2019-05-19T06:10:37.434Z,76.36
2019-05-19T06:13:06.467Z,76.36
2019-05-19T06:15:35.526Z,76.49
2019-05-19T06:18:04.528Z,76.49
2019-05-19T06:20:33.584Z,75.95
2019-05-19T06:23:02.671Z,76.08
2019-05-19T06:25:31.730Z,76.08
2019-05-19T06:28:00.760Z,75.54
2019-05-19T06:30:29.838Z,75.67
2019-05-19T06:33:00.343Z,75.16
2019-05-19T06:35:29.370Z,75.69
2019-05-19T06:37:58.415Z,75.69
2019-05-19T06:40:27.518Z,75.49
2019-05-19T06:42:56.562Z,75.32
2019-05-19T06:45:25.693Z,75.80
2019-05-19T06:47:54.689Z,75.94
2019-05-19T06:50:23.728Z,75.67
2019-05-19T06:52:52.758Z,75.18
2019-05-19T06:55:21.832Z,74.81
2019-05-19T06:57:50.907Z,74.94
2019-05-19T07:00:19.924Z,74.68
2019-05-19T07:02:48.965Z,74.68
2019-05-19T07:05:19.128Z,73.25
2019-05-19T07:07:48.204Z,73.62
2019-05-19T07:10:17.263Z,73.72
2019-05-19T07:12:46.379Z,74.12
2019-05-19T07:15:15.738Z,73.25
2019-05-19T07:17:44.841Z,73.52
2019-05-19T07:20:13.862Z,72.97
2019-05-19T07:22:43.037Z,72.62
2019-05-19T07:25:13.680Z,72.29
2019-05-19T07:27:42.778Z,72.20
2019-05-19T07:30:13.437Z,72.17
2019-05-19T07:32:42.467Z,72.57
2019-05-19T07:35:11.732Z,72.44
2019-05-19T07:37:40.791Z,72.84
2019-05-19T07:40:10.202Z,72.44
2019-05-19T07:42:39.221Z,71.38
2019-05-19T07:45:08.270Z,71.94
2019-05-19T07:47:37.300Z,70.55
2019-05-19T07:50:06.770Z,70.13
2019-05-19T07:52:35.874Z,69.70
2019-05-19T07:55:08.862Z,69.07
2019-05-19T07:57:37.892Z,68.96
2019-05-19T08:00:09.882Z,68.62
2019-05-19T08:02:38.977Z,67.23
2019-05-19T08:05:08.289Z,65.88
2019-05-19T08:07:37.464Z,66.89
2019-05-19T08:10:07.286Z,66.44
2019-05-19T08:12:36.370Z,66.06
2019-05-19T08:15:07.750Z,66.58
2019-05-19T08:17:36.839Z,65.93
2019-05-19T08:20:08.745Z,65.40
2019-05-19T08:22:37.821Z,64.19
2019-05-19T08:25:08.348Z,63.63
2019-05-19T08:27:37.441Z,63.14
2019-05-19T08:30:09.974Z,62.59
2019-05-19T08:32:39.008Z,62.48
2019-05-19T08:35:08.311Z,62.74
2019-05-19T08:37:37.434Z,63.04
2019-05-19T08:40:06.689Z,63.74
2019-05-19T08:42:35.737Z,63.09
2019-05-19T08:45:07.806Z,63.33
2019-05-19T08:47:37.093Z,64.30
2019-05-19T08:50:07.597Z,64.10
2019-05-19T08:52:36.661Z,64.61
2019-05-19T08:55:06.519Z,64.32
2019-05-19T08:57:35.621Z,64.20
2019-05-19T09:00:06.717Z,64.24
2019-05-19T09:02:35.746Z,65.24
2019-05-19T09:05:06.477Z,64.98
2019-05-19T09:07:35.658Z,64.82
2019-05-19T09:10:08.347Z,63.55
2019-05-19T09:12:37.921Z,64.11
2019-05-19T09:15:07.275Z,64.78
2019-05-19T09:17:36.318Z,64.57
2019-05-19T09:20:06.792Z,64.98
2019-05-19T09:22:35.818Z,65.70
2019-05-19T09:25:07.930Z,65.57
2019-05-19T09:27:36.984Z,66.25
2019-05-19T09:30:10.661Z,66.66
2019-05-19T09:32:39.710Z,67.20
2019-05-19T09:35:08.763Z,67.03
2019-05-19T09:37:37.791Z,67.12
2019-05-19T09:40:09.545Z,67.37
2019-05-19T09:42:38.560Z,67.02
2019-05-19T09:45:10.370Z,66.49
2019-05-19T09:47:39.712Z,66.67
2019-05-19T09:50:08.830Z,66.76
2019-05-19T09:52:38.415Z,66.88
2019-05-19T09:55:07.431Z,66.96
2019-05-19T09:57:36.715Z,65.23
2019-05-19T10:00:10.456Z,64.38
2019-05-19T10:02:39.484Z,63.50
2019-05-19T10:05:08.678Z,63.97
2019-05-19T10:07:37.804Z,63.34
2019-05-19T10:10:11.348Z,62.61
2019-05-19T10:12:40.356Z,63.37
2019-05-19T10:15:10.325Z,64.02
2019-05-19T10:17:39.398Z,63.48
2019-05-19T10:20:09.244Z,63.07
2019-05-19T10:22:38.285Z,62.18
2019-05-19T10:25:20.827Z,61.89
2019-05-19T10:27:39.904Z,60.93
2019-05-19T10:30:09.166Z,60.43
2019-05-19T10:32:38.190Z,60.13
2019-05-19T10:35:07.785Z,59.95
2019-05-19T10:37:36.969Z,59.03
2019-05-19T10:40:06.577Z,58.61
2019-05-19T10:42:35.904Z,58.61
2019-05-19T10:45:08.817Z,58.96
2019-05-19T10:47:37.957Z,59.13
2019-05-19T10:50:07.458Z,59.80
2019-05-19T10:52:36.506Z,59.81
2019-05-19T10:55:06.290Z,59.30
2019-05-19T10:57:35.317Z,59.23
2019-05-19T11:00:07.006Z,59.30
2019-05-19T11:02:36.014Z,59.28
2019-05-19T11:05:06.893Z,59.59
2019-05-19T11:07:35.904Z,59.28
2019-05-19T11:10:07.511Z,59.49
2019-05-19T11:12:36.780Z,59.03
2019-05-19T11:15:08.576Z,57.24
2019-05-19T11:21:16.014Z,56.54
2019-05-19T11:23:45.034Z,55.66
2019-05-19T11:26:14.059Z,55.41
2019-05-19T11:28:43.066Z,54.98
2019-05-19T11:31:12.158Z,54.57
2019-05-19T11:33:41.219Z,55.03
2019-05-19T11:36:10.218Z,53.16
2019-05-19T11:38:39.280Z,53.32
2019-05-19T11:41:08.440Z,52.93
2019-05-19T11:43:37.466Z,54.32
2019-05-19T11:46:06.533Z,54.44
2019-05-19T11:48:35.560Z,54.33
2019-05-19T11:51:04.907Z,54.20
2019-05-19T11:53:33.887Z,54.81
2019-05-19T11:56:06.573Z,54.59
2019-05-19T11:58:33.685Z,54.67
2019-05-19T12:01:02.794Z,52.93
2019-05-19T12:03:31.905Z,54.13
2019-05-19T12:06:00.946Z,53.73
2019-05-19T12:08:29.976Z,53.73
2019-05-19T12:10:59.001Z,54.05
2019-05-19T12:13:28.132Z,55.11
2019-05-19T12:15:57.158Z,57.51
2019-05-19T12:18:26.176Z,59.24
2019-05-19T12:20:55.204Z,61.21
2019-05-19T12:23:24.229Z,61.98
2019-05-19T12:25:53.287Z,63.05
2019-05-19T12:28:22.332Z,62.62
2019-05-19T12:30:51.367Z,62.58
2019-05-19T12:33:20.391Z,62.20
2019-05-19T12:35:49.488Z,62.62
2019-05-19T12:38:18.611Z,61.99
2019-05-19T12:40:47.636Z,60.73
2019-05-19T12:43:16.650Z,60.64
2019-05-19T12:45:45.705Z,59.85
2019-05-19T12:48:14.712Z,58.46
2019-05-19T12:50:43.752Z,58.30
2019-05-19T12:53:12.819Z,57.67
2019-05-19T12:55:41.867Z,56.08
2019-05-19T12:58:10.951Z,56.76
2019-05-19T13:00:39.972Z,54.82
2019-05-19T13:03:08.980Z,55.24
2019-05-19T13:05:38.013Z,55.06
2019-05-19T13:08:07.059Z,56.13
2019-05-19T13:10:36.082Z,57.34
2019-05-19T13:13:05.132Z,57.69
2019-05-19T13:15:34.235Z,55.77
2019-05-19T13:18:03.244Z,54.39
2019-05-19T13:20:32.279Z,53.68
2019-05-19T13:23:01.373Z,52.02
2019-05-19T13:25:30.468Z,51.99
2019-05-19T13:27:59.581Z,51.98
2019-05-19T13:30:28.590Z,50.85
2019-05-19T13:32:57.618Z,50.30
2019-05-19T13:35:26.608Z,50.34
2019-05-19T13:37:55.677Z,50.41
2019-05-19T13:40:24.685Z,51.29
2019-05-19T13:42:53.882Z,51.86
2019-05-19T13:45:22.939Z,52.54
2019-05-19T13:47:52.045Z,53.53
2019-05-19T13:50:21.058Z,53.90
2019-05-19T13:52:51.314Z,53.49
2019-05-19T13:55:20.491Z,53.34
2019-05-19T13:57:49.742Z,53.38
2019-05-19T14:00:19.211Z,53.61
2019-05-19T14:02:48.225Z,53.74
2019-05-19T14:05:17.324Z,53.18
2019-05-19T14:07:46.331Z,51.25
2019-05-19T14:10:15.347Z,51.42
2019-05-19T14:12:44.370Z,50.47
2019-05-19T14:15:13.989Z,49.60
2019-05-19T14:17:43.127Z,48.19
2019-05-19T14:20:12.519Z,47.68
2019-05-19T14:22:41.545Z,46.11
2019-05-19T14:25:10.987Z,45.55
2019-05-19T14:27:40.011Z,45.16
2019-05-19T14:30:09.585Z,44.23
2019-05-19T14:32:38.621Z,43.60
2019-05-19T14:35:10.380Z,42.95
2019-05-19T14:37:39.492Z,41.77
2019-05-19T14:40:08.633Z,40.52
2019-05-19T14:42:51.235Z,40.83
2019-05-19T14:45:20.313Z,43.23
2019-05-19T14:47:49.341Z,43.48
2019-05-19T14:50:18.370Z,44.72
2019-05-19T14:52:47.444Z,44.93
2019-05-19T14:55:16.469Z,44.06
2019-05-19T14:57:45.820Z,42.82
2019-05-19T15:00:16.694Z,41.94
2019-05-19T15:02:45.698Z,41.13
2019-05-19T15:05:14.889Z,39.81
2019-05-19T15:07:44.159Z,39.48
2019-05-19T15:10:13.266Z,39.75
2019-05-19T15:12:42.325Z,42.50
2019-05-19T15:15:11.341Z,44.17
2019-05-19T15:17:40.402Z,45.22
2019-05-19T15:20:09.511Z,45.72
2019-05-19T15:22:38.595Z,44.75
2019-05-19T15:25:08.153Z,43.21
2019-05-19T15:27:37.389Z,42.35
2019-05-19T15:30:13.204Z,40.18
2019-05-19T15:32:38.992Z,40.34
2019-05-19T15:35:08.637Z,40.47
2019-05-19T15:37:37.648Z,40.77
2019-05-19T15:40:07.826Z,39.88
2019-05-19T15:42:36.933Z,37.70
2019-05-19T15:45:06.570Z,37.27
2019-05-19T15:47:35.616Z,38.80
2019-05-19T15:50:08.355Z,40.00
2019-05-19T15:52:37.441Z,41.57
2019-05-19T15:55:06.957Z,42.89
2019-05-19T15:57:36.216Z,43.25
2019-05-19T16:00:08.036Z,43.89
2019-05-19T16:02:37.659Z,44.72
2019-05-19T16:05:07.604Z,45.56
2019-05-19T16:07:36.633Z,46.40
2019-05-19T16:10:08.993Z,46.86
2019-05-19T16:12:38.021Z,47.13
2019-05-19T16:15:07.967Z,47.59
2019-05-19T16:17:37.071Z,48.03
2019-05-19T16:20:10.572Z,48.23
2019-05-19T16:22:39.605Z,48.56
2019-05-19T16:25:08.794Z,49.26
2019-05-19T16:27:37.828Z,49.14
2019-05-19T16:30:09.178Z,49.60
2019-05-19T16:32:38.449Z,50.32
2019-05-19T16:35:07.838Z,50.78
2019-05-19T16:37:36.956Z,51.53
2019-05-19T16:40:07.116Z,51.89
2019-05-19T16:42:37.645Z,51.91
2019-05-19T16:45:08.953Z,52.28
2019-05-19T16:47:38.009Z,52.55
2019-05-19T16:50:07.230Z,53.12
2019-05-19T16:52:36.246Z,52.90
2019-05-19T16:55:19.157Z,53.15
2019-05-19T16:57:48.140Z,53.42
2019-05-19T17:00:17.252Z,53.96
2019-05-19T17:02:46.361Z,54.12
2019-05-19T17:05:15.440Z,54.51
2019-05-19T17:07:44.449Z,54.66
2019-05-19T17:10:13.497Z,54.95
2019-05-19T17:12:42.519Z,55.47
2019-05-19T17:15:11.611Z,55.95
2019-05-19T17:17:40.633Z,56.32
2019-05-19T17:20:10.325Z,56.46
2019-05-19T17:22:39.629Z,56.60
2019-05-19T17:25:08.761Z,56.89
2019-05-19T17:27:37.796Z,57.40
2019-05-19T17:30:08.349Z,57.69
2019-05-19T17:32:37.499Z,57.66
2019-05-19T17:35:07.258Z,57.93
2019-05-19T17:37:36.289Z,57.98
2019-05-19T17:40:06.263Z,58.57
2019-05-19T17:42:37.333Z,59.17
2019-05-19T17:45:07.400Z,59.75
2019-05-19T17:47:36.702Z,60.19
2019-05-19T17:50:06.526Z,60.55
2019-05-19T17:52:35.817Z,60.89
2019-05-19T17:55:07.312Z,61.12
2019-05-19T17:57:37.115Z,61.18
2019-05-19T18:00:10.147Z,61.15
2019-05-19T18:02:39.184Z,61.10
2019-05-19T18:05:08.374Z,61.17
2019-05-19T18:07:37.455Z,61.13
2019-05-19T18:10:07.214Z,61.46
2019-05-19T18:12:36.255Z,61.84
2019-05-19T18:15:06.498Z,62.32
2019-05-19T18:17:35.512Z,62.80
2019-05-19T18:20:06.855Z,63.43
2019-05-19T18:22:35.862Z,63.76
2019-05-19T18:25:06.025Z,63.88
2019-05-19T18:27:35.045Z,64.00
2019-05-19T18:30:04.477Z,64.16
2019-05-19T18:32:33.505Z,64.30
2019-05-19T18:35:02.577Z,64.36
2019-05-19T18:37:31.663Z,64.83
2019-05-19T18:40:00.725Z,65.00
2019-05-19T18:42:29.755Z,65.05
2019-05-19T18:44:58.794Z,65.51
2019-05-19T18:47:28.349Z,65.81
2019-05-19T18:49:57.379Z,66.15
2019-05-19T18:52:26.420Z,66.38
2019-05-19T18:54:55.554Z,66.61
2019-05-19T18:57:24.594Z,66.77
2019-05-19T18:59:53.622Z,67.03
2019-05-19T19:02:22.648Z,67.21
2019-05-19T19:04:51.702Z,67.49
2019-05-19T19:07:22.370Z,67.65
2019-05-19T19:09:51.423Z,67.76
2019-05-19T19:12:20.459Z,68.14
2019-05-19T19:14:49.477Z,68.12
2019-05-19T19:17:18.541Z,68.32
2019-05-19T19:19:47.614Z,68.68
2019-05-19T19:22:16.717Z,68.93
2019-05-19T19:24:45.746Z,69.40
2019-05-19T19:27:14.855Z,69.61
2019-05-19T19:29:43.861Z,70.31
2019-05-19T19:32:12.893Z,69.74
2019-05-19T19:34:41.924Z,69.83
2019-05-19T19:37:10.945Z,70.32
2019-05-19T19:39:39.988Z,70.55
2019-05-19T19:42:09.020Z,71.07
2019-05-19T19:44:38.073Z,70.51
2019-05-19T19:47:07.176Z,70.23
2019-05-19T19:49:36.271Z,70.11
2019-05-19T19:52:05.299Z,70.24
2019-05-19T19:54:34.386Z,71.79
2019-05-19T19:57:03.416Z,71.84
2019-05-19T19:59:32.452Z,71.47
2019-05-19T20:02:01.548Z,71.20
2019-05-19T20:04:30.569Z,71.94
2019-05-19T20:06:59.666Z,71.52
2019-05-19T20:09:28.739Z,71.46
2019-05-19T20:11:57.763Z,71.73
2019-05-19T20:14:26.794Z,72.08
2019-05-19T20:16:55.840Z,72.14
2019-05-19T20:19:25.003Z,72.42
2019-05-19T20:21:54.101Z,73.07
2019-05-19T20:24:23.423Z,72.87
2019-05-19T20:26:52.449Z,73.12
2019-05-19T20:29:21.486Z,73.69
2019-05-19T20:31:50.522Z,73.51
2019-05-19T20:34:19.575Z,72.91
2019-05-19T20:36:48.670Z,73.38
2019-05-19T20:39:17.908Z,73.18
2019-05-19T20:41:47.021Z,73.38
2019-05-19T20:44:16.039Z,73.35
2019-05-19T20:46:45.221Z,73.20
2019-05-19T20:49:14.256Z,72.87
2019-05-19T20:51:43.382Z,72.87
2019-05-19T20:54:12.436Z,73.00
2019-05-19T20:56:41.489Z,73.24
2019-05-19T20:59:10.540Z,73.24
2019-05-19T21:01:39.561Z,74.09
2019-05-19T21:04:08.583Z,74.36
2019-05-19T21:06:37.620Z,74.54
2019-05-19T21:09:06.907Z,74.61
2019-05-19T21:11:35.945Z,74.59
2019-05-19T21:14:04.969Z,74.40
2019-05-19T21:16:33.986Z,74.40
2019-05-19T21:19:03.057Z,74.05
2019-05-19T21:21:32.064Z,74.05
2019-05-19T21:24:01.116Z,74.04
2019-05-19T21:26:30.132Z,74.04
2019-05-19T21:28:59.149Z,73.92
2019-05-19T21:31:28.175Z,73.92
2019-05-19T21:33:57.284Z,74.05
2019-05-19T21:36:26.297Z,73.87
2019-05-19T21:38:55.395Z,73.94
2019-05-19T21:41:24.442Z,73.75
2019-05-19T21:43:53.456Z,73.85
2019-05-19T21:46:22.489Z,74.65
2019-05-19T21:48:51.515Z,74.65
2019-05-19T21:51:20.531Z,75.00
2019-05-19T21:53:49.946Z,75.01
2019-05-19T21:56:18.970Z,75.18
2019-05-19T21:58:48.021Z,74.86
2019-05-19T22:01:23.255Z,75.06
2019-05-19T22:03:47.801Z,74.73
2019-05-19T22:06:18.276Z,74.44
2019-05-19T22:08:47.283Z,74.44
2019-05-19T22:11:16.313Z,75.17
2019-05-19T22:13:45.520Z,74.72
2019-05-19T22:16:14.589Z,74.63
2019-05-19T22:18:43.734Z,75.91
2019-05-19T22:21:12.689Z,76.17
2019-05-19T22:23:41.748Z,77.13
2019-05-19T22:26:10.766Z,76.49
